KTRI/TRI METAR and TAF weather

Enter ICAO airport designator
Station Type Date Time Source
KTRI METAR 2019/11/15 04:53 UTC NOAA

KTRI 150453Z 00000KT 10SM BKN110 02/M03 A3029 RMK AO2 SLP257 T00171028 400781056


Station Type Date Time Source
KTRI Decoded METAR 2019/11/15 04:53 UTC NOAA

TRI-CITY REGIONAL AIRPORT, TN, United States (KTRI) 36-28N 082-24W 474M
Nov 14, 2019 - 11:53 PM EST / 2019.11.15 0453 UTC
Wind: Calm:0
Visibility: 10 mile(s):0
Sky conditions: mostly cloudy
Temperature: 35.1 F (1.7 C)
Dew Point: 27.0 F (-2.8 C)
Relative Humidity: 71%
Pressure (altimeter): 30.29 in. Hg (1025 hPa)
ob: KTRI 150453Z 00000KT 10SM BKN110 02/M03 A3029 RMK AO2 SLP257 T00171028 400781056
cycle: 5

Station Type Date Time Source
KTRI TAF 2019/11/15 06:22 UTC NOAA

TAF KTRI 150520Z 1506/1606 00000KT P6SM BKN100 OVC200
FM152200 VRB04KT P6SM SCT250

Example: see airport list